createdAt,value
2019-02-06T00:01:06.589Z,1.90
2019-02-06T00:03:36.982Z,1.80
2019-02-06T00:06:08.551Z,1.80
2019-02-06T00:08:38.968Z,1.70
2019-02-06T00:11:09.429Z,1.70
2019-02-06T00:13:39.865Z,1.80
2019-02-06T00:16:10.757Z,1.70
2019-02-06T00:18:41.148Z,1.60
2019-02-06T00:21:11.566Z,1.50
2019-02-06T00:23:42.009Z,1.40
2019-02-06T00:26:12.385Z,1.20
2019-02-06T00:28:42.734Z,1.20
2019-02-06T00:31:13.113Z,1.20
2019-02-06T00:33:43.461Z,1.10
2019-02-06T00:36:13.846Z,1.10
2019-02-06T00:38:44.293Z,1.00
2019-02-06T00:41:14.649Z,1.00
2019-02-06T00:43:45.044Z,1.20
2019-02-06T00:46:15.487Z,1.30
2019-02-06T00:48:45.841Z,1.20
2019-02-06T00:51:16.186Z,1.10
2019-02-06T00:53:46.706Z,1.20
2019-02-06T00:56:17.081Z,1.10
2019-02-06T00:58:47.442Z,1.00
2019-02-06T01:01:17.810Z,1.00
2019-02-06T01:03:48.174Z,0.90
2019-02-06T01:06:18.518Z,0.60
2019-02-06T01:08:49.167Z,0.40
2019-02-06T01:11:19.605Z,0.40
2019-02-06T01:13:50.014Z,0.30
2019-02-06T01:16:20.419Z,0.30
2019-02-06T01:18:50.848Z,0.30
2019-02-06T01:21:21.293Z,0.20
2019-02-06T01:23:51.692Z,0.10
2019-02-06T01:26:22.049Z,0.20
2019-02-06T01:28:52.448Z,0.20
2019-02-06T01:31:27.696Z,0.10
2019-02-06T01:33:58.109Z,0.10
2019-02-06T01:36:28.845Z,0.20
2019-02-06T01:38:59.238Z,0.20
2019-02-06T01:41:29.606Z,0.20
2019-02-06T01:44:00.045Z,0.30
2019-02-06T01:46:30.442Z,0.30
2019-02-06T01:49:00.853Z,0.30
2019-02-06T01:51:31.239Z,0.10
2019-02-06T01:54:01.611Z,0.10
2019-02-06T01:56:32.205Z,0.20
2019-02-06T01:59:02.588Z,0.20
2019-02-06T02:01:32.940Z,0.20
2019-02-06T02:04:03.413Z,0.20
2019-02-06T02:06:33.807Z,0.20
2019-02-06T02:09:07.245Z,0.20
2019-02-06T02:11:37.626Z,0.20
2019-02-06T02:14:08.168Z,0.20
2019-02-06T02:16:38.630Z,0.20
2019-02-06T02:19:09.110Z,0.10
2019-02-06T02:21:39.501Z,0.00
2019-02-06T02:24:09.865Z,0.00
2019-02-06T02:26:40.247Z,0.00
2019-02-06T02:29:10.618Z,0.00
2019-02-06T02:31:41.373Z,0.10
2019-02-06T02:34:11.834Z,0.00
2019-02-06T02:36:42.213Z,0.10
2019-02-06T02:39:12.599Z,0.10
2019-02-06T02:41:43.029Z,0.00
2019-02-06T02:44:13.497Z,0.00
2019-02-06T02:46:43.954Z,0.10
2019-02-06T02:49:14.344Z,0.10
2019-02-06T02:51:44.747Z,0.20
2019-02-06T02:54:15.181Z,0.20
2019-02-06T02:56:45.598Z,0.20
2019-02-06T02:59:16.464Z,0.40
2019-02-06T03:02:04.537Z,0.60
2019-02-06T03:04:39.050Z,0.80
2019-02-06T03:07:09.486Z,0.90
2019-02-06T03:09:40.154Z,1.10
2019-02-06T03:12:10.603Z,1.10
2019-02-06T03:14:41.054Z,1.20
2019-02-06T03:17:11.456Z,1.30
2019-02-06T03:19:41.845Z,1.30
2019-02-06T03:22:12.323Z,1.20
2019-02-06T03:24:42.690Z,1.10
2019-02-06T03:27:13.067Z,1.20
2019-02-06T03:29:43.461Z,1.20
2019-02-06T03:32:13.938Z,1.30
2019-02-06T03:34:44.318Z,1.20
2019-02-06T03:37:15.244Z,1.10
2019-02-06T03:39:45.709Z,1.00
2019-02-06T03:42:16.072Z,0.90
2019-02-06T03:44:46.465Z,0.80
2019-02-06T03:47:16.854Z,0.70
2019-02-06T03:49:47.356Z,0.60
2019-02-06T03:52:18.018Z,0.60
2019-02-06T03:54:48.434Z,0.50
2019-02-06T03:57:18.897Z,0.50
2019-02-06T03:59:49.258Z,0.20
2019-02-06T04:02:19.694Z,0.00
2019-02-06T04:04:50.079Z,-0.10
2019-02-06T04:07:20.543Z,-0.20
2019-02-06T04:09:51.083Z,-0.10
2019-02-06T04:12:21.550Z,-0.10
2019-02-06T04:14:51.937Z,0.00
2019-02-06T04:17:22.352Z,-0.10
2019-02-06T04:19:53.149Z,-0.20
2019-02-06T04:22:23.597Z,-0.10
2019-02-06T04:24:54.019Z,-0.40
2019-02-06T04:27:24.487Z,-0.60
2019-02-06T04:29:54.911Z,-0.60
2019-02-06T04:32:25.386Z,-0.60
2019-02-06T04:34:55.892Z,-0.70
2019-02-06T04:37:26.332Z,-0.70
2019-02-06T04:39:56.827Z,-0.70
2019-02-06T04:42:27.222Z,-0.70
2019-02-06T04:44:57.698Z,-0.70
2019-02-06T04:47:28.465Z,-0.60
2019-02-06T04:49:58.875Z,-0.80
2019-02-06T04:52:29.287Z,-0.80
2019-02-06T04:54:59.916Z,-0.80
2019-02-06T04:57:30.298Z,-0.90
2019-02-06T05:00:00.759Z,-1.00
2019-02-06T05:02:31.214Z,-0.90
2019-02-06T05:05:01.643Z,-1.00
2019-02-06T05:07:32.169Z,-0.90
2019-02-06T05:10:02.613Z,-0.80
2019-02-06T05:12:34.088Z,-0.90
2019-02-06T05:15:05.600Z,-1.10
2019-02-06T05:17:36.110Z,-1.00
2019-02-06T05:20:20.099Z,-1.00
2019-02-06T05:22:50.494Z,-1.00
2019-02-06T05:25:20.878Z,-0.90
2019-02-06T05:27:51.370Z,-0.90
2019-02-06T05:30:21.835Z,-0.90
2019-02-06T05:32:52.332Z,-0.90
2019-02-06T05:35:22.772Z,-1.00
2019-02-06T05:37:53.281Z,-1.00
2019-02-06T05:40:24.142Z,-1.00
2019-02-06T05:42:54.626Z,-1.00
2019-02-06T05:45:26.028Z,-0.90
2019-02-06T05:47:56.647Z,-1.10
2019-02-06T05:50:27.086Z,-1.30
2019-02-06T05:52:57.585Z,-1.20
2019-02-06T05:55:28.231Z,-1.20
2019-02-06T05:57:58.667Z,-1.20
2019-02-06T06:00:33.993Z,-1.30
2019-02-06T06:03:04.587Z,-1.40
2019-02-06T06:05:35.055Z,-1.30
2019-02-06T06:08:05.465Z,-1.20
2019-02-06T06:10:35.923Z,-1.20
2019-02-06T06:13:06.419Z,-1.20
2019-02-06T06:15:36.900Z,-1.10
2019-02-06T06:18:07.375Z,-1.10
2019-02-06T06:20:37.821Z,-1.10
2019-02-06T06:23:08.579Z,-1.10
2019-02-06T06:25:38.957Z,-1.10
2019-02-06T06:28:09.343Z,-1.10
2019-02-06T06:30:39.794Z,-1.10
2019-02-06T06:33:10.237Z,-1.30
2019-02-06T06:35:40.606Z,-1.50
2019-02-06T06:38:11.365Z,-1.60
2019-02-06T06:40:41.823Z,-1.60
2019-02-06T06:43:16.130Z,-1.60
2019-02-06T06:45:44.321Z,-1.60
2019-02-06T06:48:14.781Z,-1.50
2019-02-06T06:50:45.244Z,-1.60
2019-02-06T06:53:15.647Z,-1.60
2019-02-06T06:55:46.053Z,-1.50
2019-02-06T06:58:16.532Z,-1.50
2019-02-06T07:00:46.965Z,-1.50
2019-02-06T07:03:17.360Z,-1.40
2019-02-06T07:05:48.315Z,-1.30
2019-02-06T07:08:18.743Z,-1.20
2019-02-06T07:10:49.217Z,-1.20
2019-02-06T07:13:19.613Z,-1.30
2019-02-06T07:15:50.412Z,-1.30
2019-02-06T07:18:20.795Z,-1.30
2019-02-06T07:20:51.173Z,-1.30
2019-02-06T07:23:21.623Z,-1.20
2019-02-06T07:25:51.996Z,-1.10
2019-02-06T07:28:22.534Z,-1.00
2019-02-06T07:30:52.917Z,-1.00
2019-02-06T07:33:23.791Z,-1.10
2019-02-06T07:35:54.423Z,-1.20
2019-02-06T07:38:24.825Z,-1.20
2019-02-06T07:40:55.215Z,-1.00
2019-02-06T07:43:25.652Z,-0.90
2019-02-06T07:45:56.133Z,-0.60
2019-02-06T07:48:26.518Z,-0.40
2019-02-06T07:50:56.981Z,-0.20
2019-02-06T07:53:27.353Z,-0.10
2019-02-06T07:55:57.724Z,-0.20
2019-02-06T07:58:28.137Z,-0.20
2019-02-06T08:00:58.544Z,0.00
2019-02-06T08:03:28.966Z,0.40
2019-02-06T08:05:59.370Z,0.80
2019-02-06T08:08:36.017Z,1.10
2019-02-06T08:11:03.039Z,1.60
2019-02-06T08:13:33.621Z,2.20
2019-02-06T08:16:07.185Z,2.60
2019-02-06T08:18:36.293Z,2.80
2019-02-06T08:21:06.751Z,3.10
2019-02-06T08:23:37.097Z,3.30
2019-02-06T08:26:07.496Z,3.40
2019-02-06T08:28:38.242Z,3.40
2019-02-06T08:31:08.663Z,3.40
2019-02-06T08:33:39.091Z,3.70
2019-02-06T08:36:09.477Z,4.20
2019-02-06T08:38:47.361Z,4.00
2019-02-06T08:41:11.954Z,4.00
2019-02-06T08:43:42.429Z,4.00
2019-02-06T08:46:12.853Z,4.00
2019-02-06T08:48:43.302Z,4.20
2019-02-06T08:51:13.657Z,4.30
2019-02-06T08:53:44.030Z,4.20
2019-02-06T08:56:14.861Z,4.20
2019-02-06T08:58:45.216Z,4.30
2019-02-06T09:01:15.689Z,4.30
2019-02-06T09:03:46.062Z,4.10
2019-02-06T09:06:16.455Z,4.40
2019-02-06T09:08:46.821Z,4.90
2019-02-06T09:11:18.951Z,5.60
2019-02-06T09:13:49.417Z,6.40
2019-02-06T09:16:19.765Z,6.20
2019-02-06T09:18:50.209Z,6.50
2019-02-06T09:21:20.561Z,5.80
2019-02-06T09:23:51.425Z,5.40
2019-02-06T09:26:21.959Z,5.70
2019-02-06T09:28:52.482Z,6.00
2019-02-06T09:31:22.838Z,6.20
2019-02-06T09:33:53.202Z,5.80
2019-02-06T09:36:23.841Z,5.80
2019-02-06T09:38:54.665Z,5.60
2019-02-06T09:41:25.037Z,5.50
2019-02-06T09:43:55.527Z,5.40
2019-02-06T09:46:26.010Z,5.50
2019-02-06T09:48:56.354Z,5.50
2019-02-06T09:51:26.838Z,5.40
2019-02-06T09:53:57.175Z,5.50
2019-02-06T09:56:27.615Z,5.80
2019-02-06T09:58:57.994Z,5.90
2019-02-06T10:01:28.474Z,6.00
2019-02-06T10:04:00.304Z,6.00
2019-02-06T10:06:31.244Z,5.90
2019-02-06T10:09:01.682Z,5.90
2019-02-06T10:11:32.270Z,6.10
2019-02-06T10:14:02.621Z,6.20
2019-02-06T10:16:32.977Z,6.50
2019-02-06T10:19:03.340Z,6.90
2019-02-06T10:21:33.705Z,7.10
2019-02-06T10:24:04.285Z,7.10
2019-02-06T10:26:34.654Z,7.00
2019-02-06T10:29:05.231Z,6.90
2019-02-06T10:31:35.576Z,6.90
2019-02-06T10:34:06.277Z,6.60
2019-02-06T10:36:36.825Z,7.00
2019-02-06T10:39:09.281Z,7.00
2019-02-06T10:41:39.707Z,7.30
2019-02-06T10:44:10.082Z,7.40
2019-02-06T10:46:40.862Z,7.40
2019-02-06T10:49:11.309Z,7.50
2019-02-06T10:51:41.668Z,7.70
2019-02-06T10:54:14.629Z,8.00
2019-02-06T10:56:44.106Z,8.60
2019-02-06T10:59:14.545Z,8.70
2019-02-06T11:01:45.506Z,9.10
2019-02-06T11:04:15.893Z,9.30
2019-02-06T11:06:46.255Z,9.20
2019-02-06T11:09:16.634Z,9.30
2019-02-06T11:11:47.010Z,9.70
2019-02-06T11:14:17.406Z,9.90
2019-02-06T11:16:48.053Z,10.80
2019-02-06T11:19:18.426Z,11.30
2019-02-06T11:21:48.814Z,11.40
2019-02-06T11:24:19.229Z,11.60
2019-02-06T11:26:49.594Z,12.00
2019-02-06T11:29:19.957Z,12.30
2019-02-06T11:31:50.346Z,12.60
2019-02-06T11:34:20.706Z,12.70
2019-02-06T11:36:51.078Z,12.80
2019-02-06T11:39:23.945Z,13.00
2019-02-06T11:41:54.316Z,13.70
2019-02-06T11:44:24.729Z,14.60
2019-02-06T11:46:55.206Z,15.10
2019-02-06T11:49:31.777Z,15.70
2019-02-06T11:52:02.235Z,15.30
2019-02-06T11:54:32.622Z,14.70
2019-02-06T11:57:03.290Z,14.20
2019-02-06T11:59:33.635Z,14.20
2019-02-06T12:02:04.018Z,14.00
2019-02-06T12:04:34.365Z,14.00
2019-02-06T12:07:05.054Z,14.10
2019-02-06T12:09:35.446Z,14.20
2019-02-06T12:12:05.889Z,14.00
2019-02-06T12:14:36.257Z,13.80
2019-02-06T12:17:06.752Z,13.70
2019-02-06T12:19:38.572Z,13.60
2019-02-06T12:22:08.942Z,13.90
2019-02-06T12:24:39.884Z,13.80
2019-02-06T12:27:10.257Z,14.10
2019-02-06T12:29:40.665Z,14.20
2019-02-06T12:32:11.238Z,14.30
2019-02-06T12:34:41.583Z,14.50
2019-02-06T12:37:11.965Z,14.30
2019-02-06T12:39:42.611Z,14.30
2019-02-06T12:42:12.985Z,14.50
2019-02-06T12:44:43.474Z,14.50
2019-02-06T12:47:13.953Z,14.80
2019-02-06T12:49:44.343Z,14.80
2019-02-06T12:52:14.696Z,14.80
2019-02-06T12:54:45.061Z,15.00
2019-02-06T12:57:15.409Z,15.00
2019-02-06T12:59:45.808Z,15.10
2019-02-06T13:02:16.158Z,15.20
2019-02-06T13:04:46.565Z,15.10
2019-02-06T13:07:16.908Z,14.80
2019-02-06T13:09:47.786Z,14.80
2019-02-06T13:12:18.153Z,14.60
2019-02-06T13:14:48.622Z,14.50
2019-02-06T13:17:19.012Z,14.50
2019-02-06T13:19:49.409Z,14.70
2019-02-06T13:22:19.802Z,14.70
2019-02-06T13:24:50.564Z,14.70
2019-02-06T13:27:20.955Z,14.80
2019-02-06T13:29:51.371Z,14.60
2019-02-06T13:32:21.823Z,14.80
2019-02-06T13:34:52.246Z,15.00
2019-02-06T13:37:22.686Z,14.90
2019-02-06T13:39:53.097Z,14.80
2019-02-06T13:42:23.547Z,14.90
2019-02-06T13:44:53.936Z,14.60
2019-02-06T13:47:24.430Z,14.80
2019-02-06T13:49:54.910Z,14.60
2019-02-06T13:52:25.674Z,14.70
2019-02-06T13:54:56.133Z,14.80
2019-02-06T13:57:33.388Z,14.40
2019-02-06T13:59:58.673Z,14.00
2019-02-06T14:02:29.067Z,14.20
2019-02-06T14:04:59.828Z,14.30
2019-02-06T14:07:30.520Z,14.80
2019-02-06T14:10:00.983Z,14.20
2019-02-06T14:12:31.489Z,14.20
2019-02-06T14:15:01.945Z,14.20
2019-02-06T14:17:32.413Z,14.10
2019-02-06T14:20:03.173Z,14.00
2019-02-06T14:22:33.578Z,14.30
2019-02-06T14:25:36.846Z,14.30
2019-02-06T14:28:44.794Z,14.30
2019-02-06T14:31:48.958Z,14.30
2019-02-06T14:34:47.015Z,14.70
2019-02-06T14:37:49.717Z,15.30
2019-02-06T14:41:08.607Z,15.80
2019-02-06T14:44:17.556Z,16.00
2019-02-06T14:47:24.709Z,16.30
2019-02-06T14:50:23.282Z,15.40
2019-02-06T14:53:18.616Z,15.30
2019-02-06T14:56:07.542Z,15.70
2019-02-06T14:59:27.390Z,15.60
2019-02-06T15:03:06.413Z,15.50
2019-02-06T15:06:21.094Z,16.00
2019-02-06T15:09:34.843Z,15.90
2019-02-06T15:12:32.787Z,15.30
2019-02-06T15:15:14.604Z,15.50
2019-02-06T15:18:19.099Z,15.90
2019-02-06T15:21:42.418Z,15.70
2019-02-06T15:24:28.701Z,15.70
2019-02-06T15:27:31.363Z,15.30
2019-02-06T15:30:41.642Z,15.20
2019-02-06T15:33:37.931Z,15.30
2019-02-06T15:36:47.700Z,15.00
2019-02-06T15:39:57.949Z,14.40
2019-02-06T15:42:43.160Z,14.50
2019-02-06T15:45:36.901Z,13.90
2019-02-06T15:48:31.687Z,13.50
2019-02-06T15:52:05.134Z,13.70
2019-02-06T15:55:22.953Z,13.50
2019-02-06T15:58:31.801Z,13.10
2019-02-06T16:01:58.789Z,12.60
2019-02-06T16:05:36.531Z,12.00
2019-02-06T16:08:31.690Z,11.90
2019-02-06T16:11:29.341Z,11.70
2019-02-06T16:14:39.066Z,11.50
2019-02-06T16:17:55.906Z,11.10
2019-02-06T16:20:58.069Z,10.70
2019-02-06T16:24:05.214Z,10.40
2019-02-06T16:27:16.618Z,10.30
2019-02-06T16:30:30.286Z,10.20
2019-02-06T16:33:51.026Z,9.90
2019-02-06T16:37:17.296Z,9.70
2019-02-06T16:40:30.309Z,9.40
2019-02-06T16:43:23.009Z,9.20
2019-02-06T16:46:17.158Z,8.90
2019-02-06T16:49:05.830Z,8.60
2019-02-06T16:51:45.287Z,8.30
2019-02-06T16:54:59.848Z,7.90
2019-02-06T16:58:02.623Z,7.60
2019-02-06T17:01:23.483Z,7.50
2019-02-06T17:04:32.905Z,7.30
2019-02-06T17:07:34.758Z,7.40
2019-02-06T17:10:57.391Z,7.30
2019-02-06T17:14:02.343Z,7.20
2019-02-06T17:17:08.063Z,7.10
2019-02-06T17:20:22.647Z,6.70
2019-02-06T17:23:23.614Z,6.50
2019-02-06T17:26:23.339Z,6.70
2019-02-06T17:29:31.960Z,6.70
2019-02-06T17:32:58.665Z,6.50
2019-02-06T17:36:04.493Z,6.30
2019-02-06T17:39:24.349Z,6.20
2019-02-06T17:42:15.812Z,6.10
2019-02-06T17:45:21.244Z,6.00
2019-02-06T17:48:01.000Z,6.10
2019-02-06T17:50:49.023Z,6.00
2019-02-06T17:53:44.925Z,5.80
2019-02-06T17:56:16.550Z,5.60
2019-02-06T17:58:47.055Z,5.60
2019-02-06T18:01:52.723Z,5.60
2019-02-06T18:04:29.043Z,5.70
2019-02-06T18:06:59.823Z,5.70
2019-02-06T18:09:30.230Z,5.60
2019-02-06T18:12:00.674Z,5.40
2019-02-06T18:14:31.187Z,5.40
2019-02-06T18:17:03.289Z,5.50
2019-02-06T18:19:39.124Z,5.50
2019-02-06T18:22:09.991Z,5.50
2019-02-06T18:24:40.454Z,5.30
2019-02-06T18:27:12.640Z,5.20
2019-02-06T18:29:43.223Z,5.20
2019-02-06T18:32:13.668Z,5.10
2019-02-06T18:34:44.464Z,5.10
2019-02-06T18:37:14.974Z,5.00
2019-02-06T18:39:45.441Z,4.90
2019-02-06T18:42:15.907Z,4.90
2019-02-06T18:44:46.390Z,4.80
2019-02-06T18:47:16.919Z,4.70
2019-02-06T18:49:47.770Z,4.60
2019-02-06T18:54:50.417Z,4.50
2019-02-06T18:57:20.881Z,4.50
2019-02-06T18:59:51.461Z,4.40
2019-02-06T19:02:22.057Z,4.40
2019-02-06T19:04:52.559Z,4.10
2019-02-06T19:07:23.751Z,3.90
2019-02-06T19:09:54.403Z,3.80
2019-02-06T19:12:24.854Z,3.90
2019-02-06T19:14:55.854Z,3.90
2019-02-06T19:17:26.337Z,4.10
2019-02-06T19:19:56.917Z,4.20
2019-02-06T19:22:27.873Z,4.30
2019-02-06T19:24:58.426Z,4.10
2019-02-06T19:27:28.956Z,4.10
2019-02-06T19:29:59.528Z,4.10
2019-02-06T19:32:30.051Z,4.10
2019-02-06T19:35:00.825Z,4.10
2019-02-06T19:37:35.190Z,3.90
2019-02-06T19:40:06.376Z,3.70
2019-02-06T19:42:36.848Z,3.70
2019-02-06T19:45:07.979Z,3.70
2019-02-06T19:47:38.542Z,3.60
2019-02-06T19:50:16.202Z,3.60
2019-02-06T19:52:46.662Z,3.60
2019-02-06T19:55:17.147Z,3.60
2019-02-06T19:57:47.626Z,3.70
2019-02-06T20:00:20.888Z,3.60
2019-02-06T20:02:51.586Z,3.50
2019-02-06T20:05:22.170Z,3.50
2019-02-06T20:07:52.985Z,3.50
2019-02-06T20:10:26.349Z,3.40
2019-02-06T20:12:56.923Z,3.20
2019-02-06T20:15:27.355Z,3.20
2019-02-06T20:17:57.840Z,3.30
2019-02-06T20:20:28.249Z,3.30
2019-02-06T20:22:58.852Z,3.40
2019-02-06T20:25:29.318Z,3.40
2019-02-06T20:27:59.783Z,3.50
2019-02-06T20:30:30.546Z,3.50
2019-02-06T20:33:01.023Z,3.40
2019-02-06T20:35:31.493Z,3.40
2019-02-06T20:38:01.970Z,3.40
2019-02-06T20:40:34.133Z,3.40
2019-02-06T20:43:04.549Z,3.30
2019-02-06T20:45:35.008Z,3.10
2019-02-06T20:48:05.872Z,3.00
2019-02-06T20:50:36.816Z,3.10
2019-02-06T20:53:07.345Z,3.10
2019-02-06T20:55:37.821Z,3.10
2019-02-06T20:58:08.275Z,2.90
2019-02-06T21:00:39.218Z,2.70
2019-02-06T21:03:09.873Z,2.70
2019-02-06T21:05:40.424Z,2.80
2019-02-06T21:08:10.939Z,2.60
2019-02-06T21:10:41.434Z,2.60
2019-02-06T21:13:11.845Z,2.50
2019-02-06T21:15:42.258Z,2.40
2019-02-06T21:18:12.736Z,2.40
2019-02-06T21:20:43.586Z,2.40
2019-02-06T21:23:13.994Z,2.50
2019-02-06T21:25:44.458Z,2.60
2019-02-06T21:28:14.854Z,2.50
2019-02-06T21:30:47.039Z,2.40
2019-02-06T21:33:17.506Z,2.40
2019-02-06T21:35:47.994Z,2.30
2019-02-06T21:38:18.356Z,2.20
2019-02-06T21:40:49.065Z,2.30
2019-02-06T21:43:19.458Z,2.30
2019-02-06T21:45:50.039Z,2.50
2019-02-06T21:48:22.411Z,2.40
2019-02-06T21:50:52.838Z,2.40
2019-02-06T21:53:23.297Z,2.20
2019-02-06T21:55:53.774Z,2.10
2019-02-06T21:58:24.291Z,2.30
2019-02-06T22:00:54.772Z,2.50
2019-02-06T22:03:25.217Z,2.70
2019-02-06T22:05:55.609Z,2.80
2019-02-06T22:08:26.077Z,2.80
2019-02-06T22:10:56.523Z,2.80
2019-02-06T22:13:27.416Z,2.70
2019-02-06T22:15:57.866Z,2.70
2019-02-06T22:18:28.778Z,2.70
2019-02-06T22:20:59.526Z,2.60
2019-02-06T22:23:30.210Z,2.70
2019-02-06T22:26:00.649Z,2.50
2019-02-06T22:28:32.393Z,2.20
2019-02-06T22:31:02.893Z,2.00
2019-02-06T22:33:37.361Z,1.90
2019-02-06T22:36:08.143Z,1.90
2019-02-06T22:38:38.506Z,2.10
2019-02-06T22:41:09.243Z,2.10
2019-02-06T22:43:39.729Z,2.20
2019-02-06T22:46:10.105Z,2.00
2019-02-06T22:48:40.517Z,1.80
2019-02-06T22:51:11.010Z,1.90
2019-02-06T22:53:41.394Z,1.90
2019-02-06T22:56:12.091Z,1.80
2019-02-06T22:58:42.472Z,1.60
2019-02-06T23:01:39.875Z,1.60
2019-02-06T23:04:10.585Z,1.70
2019-02-06T23:06:40.977Z,2.00
2019-02-06T23:09:11.362Z,2.30
2019-02-06T23:11:41.832Z,2.50
2019-02-06T23:14:17.794Z,2.50
2019-02-06T23:16:44.398Z,2.50
2019-02-06T23:19:14.761Z,2.50
2019-02-06T23:21:45.125Z,2.60
2019-02-06T23:24:15.505Z,2.70
2019-02-06T23:26:45.938Z,2.80
2019-02-06T23:29:16.335Z,2.40
2019-02-06T23:31:46.702Z,2.50
2019-02-06T23:34:17.061Z,2.60
2019-02-06T23:36:47.454Z,2.20
2019-02-06T23:39:19.482Z,2.20
2019-02-06T23:41:49.846Z,2.20
2019-02-06T23:44:28.483Z,2.20
2019-02-06T23:46:52.341Z,2.30
2019-02-06T23:49:22.759Z,2.30
2019-02-06T23:51:53.154Z,2.30
2019-02-06T23:54:23.513Z,2.60
2019-02-06T23:56:54.265Z,2.70
2019-02-06T23:59:24.615Z,2.50
